sensor_id;sensor_type;location;lat;lon;timestamp;pressure;altitude;pressure_sealevel;temperature;humidity
47166;BME280;32930;51.112;13.762;2023-05-07T01:34:33;99729.16;;;12.05;94.33
47166;BME280;32930;51.112;13.762;2023-05-07T01:36:59;99716.19;;;11.70;94.30
47166;BME280;32930;51.112;13.762;2023-05-07T01:52:44;99732.41;;;11.59;97.44
47166;BME280;32930;51.112;13.762;2023-05-07T01:55:10;99727.31;;;11.69;97.17
47166;BME280;32930;51.112;13.762;2023-05-07T01:57:35;99721.25;;;11.51;96.87
47166;BME280;32930;51.112;13.762;2023-05-07T02:00:03;99722.16;;;11.64;96.87
47166;BME280;32930;51.112;13.762;2023-05-07T02:02:30;99717.91;;;11.71;95.64
47166;BME280;32930;51.112;13.762;2023-05-07T02:04:55;99728.91;;;11.41;95.82
47166;BME280;32930;51.112;13.762;2023-05-07T02:07:20;99722.13;;;11.52;97.39
47166;BME280;32930;51.112;13.762;2023-05-07T02:09:45;99719.53;;;11.52;97.11
47166;BME280;32930;51.112;13.762;2023-05-07T02:12:11;99734.09;;;11.53;96.80
47166;BME280;32930;51.112;13.762;2023-05-07T02:14:36;99724.63;;;11.40;98.42
47166;BME280;32930;51.112;13.762;2023-05-07T02:17:01;99730.66;;;11.48;98.61
47166;BME280;32930;51.112;13.762;2023-05-07T02:19:27;99737.53;;;11.52;98.43
47166;BME280;32930;51.112;13.762;2023-05-07T02:21:52;99732.41;;;11.58;97.56
47166;BME280;32930;51.112;13.762;2023-05-07T02:24:18;99729.81;;;11.49;99.21
47166;BME280;32930;51.112;13.762;2023-05-07T02:26:43;99731.50;;;11.42;99.28
47166;BME280;32930;51.112;13.762;2023-05-07T02:29:08;99740.03;;;11.44;98.65
47166;BME280;32930;51.112;13.762;2023-05-07T02:31:33;99745.19;;;11.47;97.64
47166;BME280;32930;51.112;13.762;2023-05-07T02:34:01;99747.00;;;11.60;96.78
47166;BME280;32930;51.112;13.762;2023-05-07T02:36:27;99750.41;;;11.61;97.14
47166;BME280;32930;51.112;13.762;2023-05-07T02:38:52;99744.41;;;11.60;95.58
47166;BME280;32930;51.112;13.762;2023-05-07T02:41:18;99745.19;;;11.44;95.91
47166;BME280;32930;51.112;13.762;2023-05-07T02:43:43;99746.16;;;11.68;96.29
47166;BME280;32930;51.112;13.762;2023-05-07T02:46:09;99754.69;;;11.59;95.34
47166;BME280;32930;51.112;13.762;2023-05-07T02:48:34;99753.00;;;11.64;95.98
47166;BME280;32930;51.112;13.762;2023-05-07T02:51:00;99751.19;;;11.45;95.26
47166;BME280;32930;51.112;13.762;2023-05-07T02:53:27;99745.22;;;11.52;96.83
47166;BME280;32930;51.112;13.762;2023-05-07T02:56:00;99743.50;;;11.48;97.28
47166;BME280;32930;51.112;13.762;2023-05-07T02:58:26;99746.16;;;11.69;95.71
47166;BME280;32930;51.112;13.762;2023-05-07T03:00:52;99748.75;;;11.74;94.95
47166;BME280;32930;51.112;13.762;2023-05-07T03:03:17;99743.53;;;11.54;96.44
47166;BME280;32930;51.112;13.762;2023-05-07T03:05:43;99746.97;;;11.57;96.70
47166;BME280;32930;51.112;13.762;2023-05-07T03:08:09;99750.38;;;11.56;95.30
47166;BME280;32930;51.112;13.762;2023-05-07T03:10:34;99747.78;;;11.49;96.98
47166;BME280;32930;51.112;13.762;2023-05-07T03:13:00;99747.88;;;11.70;95.63
47166;BME280;32930;51.112;13.762;2023-05-07T03:15:25;99746.16;;;11.65;94.77
47166;BME280;32930;51.112;13.762;2023-05-07T03:17:51;99746.13;;;11.66;94.72
47166;BME280;32930;51.112;13.762;2023-05-07T03:20:16;99757.09;;;11.30;96.54
47166;BME280;32930;51.112;13.762;2023-05-07T03:22:41;99750.34;;;11.50;96.45
47166;BME280;32930;51.112;13.762;2023-05-07T03:25:07;99742.69;;;11.58;96.50
47166;BME280;32930;51.112;13.762;2023-05-07T03:27:35;99742.66;;;11.49;96.51
47166;BME280;32930;51.112;13.762;2023-05-07T03:30:01;99756.34;;;11.45;96.85
47166;BME280;32930;51.112;13.762;2023-05-07T03:45:52;99766.56;;;11.35;95.04
47166;BME280;32930;51.112;13.762;2023-05-07T03:48:41;99764.84;;;11.41;94.45
47166;BME280;32930;51.112;13.762;2023-05-07T03:51:29;99764.88;;;11.44;94.61
47166;BME280;32930;51.112;13.762;2023-05-07T03:53:55;99775.13;;;11.41;93.82
47166;BME280;32930;51.112;13.762;2023-05-07T03:56:22;99762.34;;;11.53;93.89
47166;BME280;32930;51.112;13.762;2023-05-07T03:58:48;99775.13;;;11.36;94.95
47166;BME280;32930;51.112;13.762;2023-05-07T04:01:13;99774.25;;;11.37;94.68
47166;BME280;32930;51.112;13.762;2023-05-07T04:03:38;99782.84;;;11.44;94.33
47166;BME280;32930;51.112;13.762;2023-05-07T04:06:09;99776.72;;;11.17;95.09
47166;BME280;32930;51.112;13.762;2023-05-07T04:08:35;99773.31;;;11.21;95.16
47166;BME280;32930;51.112;13.762;2023-05-07T04:11:00;99772.59;;;11.47;94.65
47166;BME280;32930;51.112;13.762;2023-05-07T04:13:26;99771.69;;;11.35;95.18
47166;BME280;32930;51.112;13.762;2023-05-07T04:15:51;99776.78;;;11.31;95.91
47166;BME280;32930;51.112;13.762;2023-05-07T04:18:24;99778.28;;;10.97;96.62
47166;BME280;32930;51.112;13.762;2023-05-07T04:20:52;99776.78;;;11.26;96.04
47166;BME280;32930;51.112;13.762;2023-05-07T04:23:22;99783.59;;;11.24;95.94
47166;BME280;32930;51.112;13.762;2023-05-07T04:25:48;99788.63;;;11.04;95.16
47166;BME280;32930;51.112;13.762;2023-05-07T04:28:13;99787.06;;;11.31;94.14
47166;BME280;32930;51.112;13.762;2023-05-07T04:30:41;99788.81;;;11.33;94.66
47166;BME280;32930;51.112;13.762;2023-05-07T04:33:06;99785.25;;;11.10;96.55
47166;BME280;32930;51.112;13.762;2023-05-07T04:35:35;99801.41;;;10.98;96.53
47166;BME280;32930;51.112;13.762;2023-05-07T04:50:09;99811.97;;;11.40;95.21
47166;BME280;32930;51.112;13.762;2023-05-07T04:52:35;99819.47;;;11.12;95.36
47166;BME280;32930;51.112;13.762;2023-05-07T04:57:38;99820.50;;;11.40;94.63
47166;BME280;32930;51.112;13.762;2023-05-07T05:00:05;99824.78;;;11.41;93.81
47166;BME280;32930;51.112;13.762;2023-05-07T05:02:48;99821.34;;;11.37;94.52
47166;BME280;32930;51.112;13.762;2023-05-07T05:05:16;99827.31;;;11.29;94.29
47166;BME280;32930;51.112;13.762;2023-05-07T05:07:41;99833.25;;;11.25;94.61
47166;BME280;32930;51.112;13.762;2023-05-07T05:10:06;99835.03;;;11.32;94.55
47166;BME280;32930;51.112;13.762;2023-05-07T06:27:32;99904.38;;;11.32;87.84
47166;BME280;32930;51.112;13.762;2023-05-07T06:29:57;99903.16;;;10.92;88.46
47166;BME280;32930;51.112;13.762;2023-05-07T06:34:51;99900.44;;;10.78;91.27
47166;BME280;32930;51.112;13.762;2023-05-07T06:37:16;99896.03;;;10.64;92.25
47166;BME280;32930;51.112;13.762;2023-05-07T06:54:09;99924.53;;;10.89;90.70
47166;BME280;32930;51.112;13.762;2023-05-07T06:56:34;99918.84;;;11.24;89.86
47166;BME280;32930;51.112;13.762;2023-05-07T07:06:45;99925.41;;;10.93;87.32
47166;BME280;32930;51.112;13.762;2023-05-07T07:09:10;99928.88;;;10.95;87.96
47166;BME280;32930;51.112;13.762;2023-05-07T07:11:38;99917.97;;;11.20;88.08
47166;BME280;32930;51.112;13.762;2023-05-07T07:19:41;99916.94;;;11.03;87.72
47166;BME280;32930;51.112;13.762;2023-05-07T07:33:22;99931.31;;;10.82;86.82
47166;BME280;32930;51.112;13.762;2023-05-07T07:35:48;99934.03;;;10.98;87.11
47166;BME280;32930;51.112;13.762;2023-05-07T07:38:13;99935.47;;;10.74;87.86
47166;BME280;32930;51.112;13.762;2023-05-07T07:40:39;99937.31;;;10.86;87.61
47166;BME280;32930;51.112;13.762;2023-05-07T07:43:13;99937.38;;;10.94;87.92
47166;BME280;32930;51.112;13.762;2023-05-07T08:17:58;99963.88;;;10.89;85.32
47166;BME280;32930;51.112;13.762;2023-05-07T08:20:25;99967.50;;;11.07;84.43
47166;BME280;32930;51.112;13.762;2023-05-07T08:22:51;99964.94;;;11.07;84.83
47166;BME280;32930;51.112;13.762;2023-05-07T08:27:53;99972.22;;;11.60;82.04
47166;BME280;32930;51.112;13.762;2023-05-07T08:30:19;99972.94;;;11.42;83.39
47166;BME280;32930;51.112;13.762;2023-05-07T08:43:35;99979.44;;;11.06;84.29
47166;BME280;32930;51.112;13.762;2023-05-07T08:48:36;99971.88;;;11.17;84.15
47166;BME280;32930;51.112;13.762;2023-05-07T10:04:04;100022.13;;;10.97;83.50
47166;BME280;32930;51.112;13.762;2023-05-07T10:32:37;100018.72;;;11.85;79.71
47166;BME280;32930;51.112;13.762;2023-05-07T10:35:04;100014.25;;;11.64;79.45
47166;BME280;32930;51.112;13.762;2023-05-07T10:37:31;100005.69;;;11.65;78.64
47166;BME280;32930;51.112;13.762;2023-05-07T10:39:57;100018.44;;;11.54;78.61
47166;BME280;32930;51.112;13.762;2023-05-07T12:09:44;100006.06;;;12.15;74.52
47166;BME280;32930;51.112;13.762;2023-05-07T12:12:09;100008.03;;;12.64;74.15
47166;BME280;32930;51.112;13.762;2023-05-07T12:14:42;100008.81;;;12.47;73.57
47166;BME280;32930;51.112;13.762;2023-05-07T12:17:09;100012.16;;;12.28;74.12
47166;BME280;32930;51.112;13.762;2023-05-07T12:19:38;100007.19;;;12.65;73.80
47166;BME280;32930;51.112;13.762;2023-05-07T12:22:04;100011.44;;;12.60;73.54
47166;BME280;32930;51.112;13.762;2023-05-07T12:49:34;100026.16;;;12.87;73.42
47166;BME280;32930;51.112;13.762;2023-05-07T12:52:02;100019.31;;;13.01;72.57
47166;BME280;32930;51.112;13.762;2023-05-07T12:54:30;100010.75;;;13.07;72.07
47166;BME280;32930;51.112;13.762;2023-05-07T12:59:51;100013.31;;;13.04;71.31
47166;BME280;32930;51.112;13.762;2023-05-07T13:02:31;100015.88;;;12.96;71.49
47166;BME280;32930;51.112;13.762;2023-05-07T13:04:56;100014.13;;;12.84;70.84
47166;BME280;32930;51.112;13.762;2023-05-07T13:07:24;100012.47;;;13.09;70.95
47166;BME280;32930;51.112;13.762;2023-05-07T13:09:58;100015.16;;;13.40;70.59
47166;BME280;32930;51.112;13.762;2023-05-07T13:12:30;100009.88;;;13.08;70.27
47166;BME280;32930;51.112;13.762;2023-05-07T13:14:55;100023.63;;;12.99;70.06
47166;BME280;32930;51.112;13.762;2023-05-07T13:17:21;100009.91;;;13.09;70.36
47166;BME280;32930;51.112;13.762;2023-05-07T13:19:46;100014.16;;;12.96;70.36
47166;BME280;32930;51.112;13.762;2023-05-07T13:22:11;100012.50;;;13.21;70.90
47166;BME280;32930;51.112;13.762;2023-05-07T13:24:36;100012.56;;;13.37;70.95
47166;BME280;32930;51.112;13.762;2023-05-07T13:27:02;99997.97;;;13.50;70.43
47166;BME280;32930;51.112;13.762;2023-05-07T13:29:28;99999.69;;;13.66;70.37
47166;BME280;32930;51.112;13.762;2023-05-07T13:31:57;99987.66;;;13.76;69.54
47166;BME280;32930;51.112;13.762;2023-05-07T13:34:22;99989.38;;;13.63;68.67
47166;BME280;32930;51.112;13.762;2023-05-07T13:36:47;99996.22;;;13.33;68.81
47166;BME280;32930;51.112;13.762;2023-05-07T13:39:12;99988.53;;;13.56;68.37
47166;BME280;32930;51.112;13.762;2023-05-07T13:41:38;99988.50;;;13.67;68.61
47166;BME280;32930;51.112;13.762;2023-05-07T13:44:03;99989.38;;;13.64;67.95
47166;BME280;32930;51.112;13.762;2023-05-07T13:46:29;99982.53;;;13.56;68.36
47166;BME280;32930;51.112;13.762;2023-05-07T13:48:54;99990.22;;;13.48;67.66
47166;BME280;32930;51.112;13.762;2023-05-07T13:51:20;99989.38;;;13.43;67.01
47166;BME280;32930;51.112;13.762;2023-05-07T13:53:45;99985.94;;;13.50;66.96
47166;BME280;32930;51.112;13.762;2023-05-07T13:56:10;99991.94;;;13.32;68.39
47166;BME280;32930;51.112;13.762;2023-05-07T13:58:35;99988.44;;;13.19;67.87
47166;BME280;32930;51.112;13.762;2023-05-07T14:01:01;99989.38;;;13.57;68.48
47166;BME280;32930;51.112;13.762;2023-05-07T14:03:26;99988.50;;;13.45;67.75
47166;BME280;32930;51.112;13.762;2023-05-07T14:05:52;99997.13;;;13.43;68.67
47166;BME280;32930;51.112;13.762;2023-05-07T14:08:17;99992.81;;;13.45;68.58
47166;BME280;32930;51.112;13.762;2023-05-07T14:10:44;99990.22;;;13.48;68.55
47166;BME280;32930;51.112;13.762;2023-05-07T14:13:11;99991.97;;;13.43;69.46
47166;BME280;32930;51.112;13.762;2023-05-07T14:15:36;99985.94;;;13.35;68.74
47166;BME280;32930;51.112;13.762;2023-05-07T14:18:05;99988.53;;;13.47;69.71
47166;BME280;32930;51.112;13.762;2023-05-07T15:38:50;100001.03;;;12.38;71.30
47166;BME280;32930;51.112;13.762;2023-05-07T15:41:15;100012.25;;;12.48;70.90
47166;BME280;32930;51.112;13.762;2023-05-07T15:43:48;100022.56;;;12.51;70.02
47166;BME280;32930;51.112;13.762;2023-05-07T15:46:18;100020.78;;;12.41;70.78
47166;BME280;32930;51.112;13.762;2023-05-07T15:48:43;100019.13;;;12.50;71.73
47166;BME280;32930;51.112;13.762;2023-05-07T15:51:18;100019.97;;;12.48;71.93
47166;BME280;32930;51.112;13.762;2023-05-07T15:54:01;100025.16;;;12.56;71.91
47166;BME280;32930;51.112;13.762;2023-05-07T15:58:53;100025.84;;;12.21;70.75
47166;BME280;32930;51.112;13.762;2023-05-07T16:01:18;100020.78;;;12.36;71.14
47166;BME280;32930;51.112;13.762;2023-05-07T16:03:43;100022.47;;;12.33;71.35
47166;BME280;32930;51.112;13.762;2023-05-07T16:06:09;100020.63;;;12.16;71.89
47166;BME280;32930;51.112;13.762;2023-05-07T16:08:42;100019.16;;;12.52;71.06
47166;BME280;32930;51.112;13.762;2023-05-07T16:11:08;100020.59;;;12.07;71.86
47166;BME280;32930;51.112;13.762;2023-05-07T16:13:34;100024.94;;;12.14;71.72
47166;BME280;32930;51.112;13.762;2023-05-07T16:16:10;100018.72;;;11.88;72.37
47166;BME280;32930;51.112;13.762;2023-05-07T16:24:32;100018.91;;;12.12;71.44
47166;BME280;32930;51.112;13.762;2023-05-07T16:27:00;100015.53;;;12.18;71.02
47166;BME280;32930;51.112;13.762;2023-05-07T16:29:28;100023.22;;;12.15;71.32
47166;BME280;32930;51.112;13.762;2023-05-07T16:32:04;100035.19;;;12.13;71.15
47166;BME280;32930;51.112;13.762;2023-05-07T16:34:29;100027.41;;;12.02;71.77
47166;BME280;32930;51.112;13.762;2023-05-07T16:36:54;100035.25;;;12.17;71.39
47166;BME280;32930;51.112;13.762;2023-05-07T16:39:20;100028.28;;;12.04;71.08
47166;BME280;32930;51.112;13.762;2023-05-07T16:41:45;100024.22;;;12.37;69.80
47166;BME280;32930;51.112;13.762;2023-05-07T16:44:15;100036.19;;;12.35;69.98
47166;BME280;32930;51.112;13.762;2023-05-07T16:46:40;100041.09;;;11.96;70.42
47166;BME280;32930;51.112;13.762;2023-05-07T16:49:05;100048.81;;;12.01;70.50
47166;BME280;32930;51.112;13.762;2023-05-07T16:51:32;100039.22;;;11.80;71.57
47166;BME280;32930;51.112;13.762;2023-05-07T16:53:57;100040.34;;;12.11;71.04
47166;BME280;32930;51.112;13.762;2023-05-07T16:56:22;100041.19;;;12.13;70.52
47166;BME280;32930;51.112;13.762;2023-05-07T16:58:48;100038.59;;;12.07;71.57
47166;BME280;32930;51.112;13.762;2023-05-07T17:01:13;100044.50;;;11.97;71.05
47166;BME280;32930;51.112;13.762;2023-05-07T17:03:40;100041.16;;;12.10;70.57
47166;BME280;32930;51.112;13.762;2023-05-07T17:06:05;100048.53;;;11.67;72.49
47166;BME280;32930;51.112;13.762;2023-05-07T17:08:37;100036.53;;;11.69;72.11
47166;BME280;32930;51.112;13.762;2023-05-07T17:56:45;100058.53;;;11.38;70.23
47166;BME280;32930;51.112;13.762;2023-05-07T17:59:10;100061.22;;;11.49;69.87
47166;BME280;32930;51.112;13.762;2023-05-07T18:04:22;100072.75;;;11.07;69.82
47166;BME280;32930;51.112;13.762;2023-05-07T18:06:50;100064.50;;;11.35;70.03
47166;BME280;32930;51.112;13.762;2023-05-07T18:09:15;100070.41;;;11.27;69.74
47166;BME280;32930;51.112;13.762;2023-05-07T18:11:40;100066.13;;;11.27;70.17
47166;BME280;32930;51.112;13.762;2023-05-07T18:14:06;100065.66;;;10.87;70.86
47166;BME280;32930;51.112;13.762;2023-05-07T18:16:31;100072.75;;;11.07;70.65
47166;BME280;32930;51.112;13.762;2023-05-07T18:18:56;100072.91;;;11.21;70.45
47166;BME280;32930;51.112;13.762;2023-05-07T18:29:54;100087.50;;;11.25;70.00
47166;BME280;32930;51.112;13.762;2023-05-07T18:32:19;100088.19;;;11.10;69.87
47166;BME280;32930;51.112;13.762;2023-05-07T18:34:46;100089.13;;;11.17;70.75
47166;BME280;32930;51.112;13.762;2023-05-07T18:37:11;100094.84;;;10.96;70.59
47166;BME280;32930;51.112;13.762;2023-05-07T18:39:36;100091.44;;;10.97;70.94
47166;BME280;32930;51.112;13.762;2023-05-07T18:42:02;100094.31;;;11.20;69.98
47166;BME280;32930;51.112;13.762;2023-05-07T18:47:03;100100.09;;;11.06;69.75
47166;BME280;32930;51.112;13.762;2023-05-07T18:49:29;100110.13;;;10.85;71.14
47166;BME280;32930;51.112;13.762;2023-05-07T19:06:42;100124.34;;;10.61;71.69
47166;BME280;32930;51.112;13.762;2023-05-07T19:09:07;100124.63;;;10.83;72.01
47166;BME280;32930;51.112;13.762;2023-05-07T19:11:33;100116.31;;;11.02;70.89
47166;BME280;32930;51.112;13.762;2023-05-07T19:13:58;100112.81;;;10.94;71.44
47166;BME280;32930;51.112;13.762;2023-05-07T19:16:23;100114.50;;;10.94;70.69
47166;BME280;32930;51.112;13.762;2023-05-07T19:18:49;100114.56;;;10.34;71.98
47166;BME280;32930;51.112;13.762;2023-05-07T19:21:14;100118.16;;;10.47;72.65
47166;BME280;32930;51.112;13.762;2023-05-07T19:23:40;100119.69;;;10.97;71.22
47166;BME280;32930;51.112;13.762;2023-05-07T19:26:08;100125.88;;;10.49;71.97
47166;BME280;32930;51.112;13.762;2023-05-07T19:28:34;100129.63;;;10.72;71.72
47166;BME280;32930;51.112;13.762;2023-05-07T19:30:59;100123.78;;;10.82;71.79
47166;BME280;32930;51.112;13.762;2023-05-07T19:33:24;100127.03;;;10.69;72.39
47166;BME280;32930;51.112;13.762;2023-05-07T19:35:50;100126.53;;;10.35;72.61
47166;BME280;32930;51.112;13.762;2023-05-07T19:40:46;100130.19;;;10.53;72.22
47166;BME280;32930;51.112;13.762;2023-05-07T19:43:11;100138.72;;;10.50;72.40
47166;BME280;32930;51.112;13.762;2023-05-07T19:45:36;100141.63;;;10.73;71.94
47166;BME280;32930;51.112;13.762;2023-05-07T19:48:01;100141.88;;;10.93;71.39
47166;BME280;32930;51.112;13.762;2023-05-07T19:50:30;100144.78;;;10.55;71.48
47166;BME280;32930;51.112;13.762;2023-05-07T19:52:55;100145.81;;;10.68;72.30
47166;BME280;32930;51.112;13.762;2023-05-07T19:55:20;100149.13;;;10.61;71.93
47166;BME280;32930;51.112;13.762;2023-05-07T19:57:45;100155.25;;;10.71;72.17
47166;BME280;32930;51.112;13.762;2023-05-07T20:00:14;100155.34;;;10.77;72.01
47166;BME280;32930;51.112;13.762;2023-05-07T20:02:39;100159.81;;;10.88;71.90
47166;BME280;32930;51.112;13.762;2023-05-07T20:05:07;100163.03;;;10.75;71.69
47166;BME280;32930;51.112;13.762;2023-05-07T20:07:41;100171.06;;;10.40;72.26
47166;BME280;32930;51.112;13.762;2023-05-07T20:10:07;100170.50;;;10.60;72.20
47166;BME280;32930;51.112;13.762;2023-05-07T20:12:32;100170.78;;;10.80;71.59
47166;BME280;32930;51.112;13.762;2023-05-07T20:14:57;100176.50;;;10.60;71.66
47166;BME280;32930;51.112;13.762;2023-05-07T20:17:23;100182.47;;;10.59;71.65
47166;BME280;32930;51.112;13.762;2023-05-07T20:19:48;100179.91;;;10.59;71.82
47166;BME280;32930;51.112;13.762;2023-05-07T20:22:13;100190.06;;;10.53;71.76
47166;BME280;32930;51.112;13.762;2023-05-07T20:24:38;100186.75;;;10.60;72.77
47166;BME280;32930;51.112;13.762;2023-05-07T20:27:04;100193.56;;;10.57;71.54
47166;BME280;32930;51.112;13.762;2023-05-07T20:32:02;100187.72;;;10.67;71.41
47166;BME280;32930;51.112;13.762;2023-05-07T20:34:28;100189.97;;;10.47;71.66
47166;BME280;32930;51.112;13.762;2023-05-07T20:36:53;100196.56;;;10.31;71.11
47166;BME280;32930;51.112;13.762;2023-05-07T20:39:18;100200.94;;;10.38;71.58
47166;BME280;32930;51.112;13.762;2023-05-07T20:41:43;100196.06;;;10.55;70.19
47166;BME280;32930;51.112;13.762;2023-05-07T20:44:09;100209.19;;;10.22;70.70
47166;BME280;32930;51.112;13.762;2023-05-07T20:46:35;100201.41;;;10.16;71.14
47166;BME280;32930;51.112;13.762;2023-05-07T20:49:01;100206.59;;;10.20;70.66
47166;BME280;32930;51.112;13.762;2023-05-07T20:51:26;100202.75;;;10.44;70.59
47166;BME280;32930;51.112;13.762;2023-05-07T20:53:51;100201.94;;;10.47;70.12
47166;BME280;32930;51.112;13.762;2023-05-07T20:56:19;100204.16;;;10.27;69.73
47166;BME280;32930;51.112;13.762;2023-05-07T20:58:45;100214.94;;;10.09;70.58
47166;BME280;32930;51.112;13.762;2023-05-07T21:01:10;100207.78;;;10.38;70.00
47166;BME280;32930;51.112;13.762;2023-05-07T21:03:35;100216.66;;;10.58;69.79
47166;BME280;32930;51.112;13.762;2023-05-07T21:06:00;100209.84;;;10.60;69.71
47166;BME280;32930;51.112;13.762;2023-05-07T21:08:36;100212.81;;;10.32;69.79
47166;BME280;32930;51.112;13.762;2023-05-07T21:11:01;100207.88;;;10.44;69.22
47166;BME280;32930;51.112;13.762;2023-05-07T21:13:26;100216.59;;;10.54;69.41
47166;BME280;32930;51.112;13.762;2023-05-07T21:15:52;100214.06;;;10.57;69.46
47166;BME280;32930;51.112;13.762;2023-05-07T21:18:25;100216.91;;;10.24;68.69
47166;BME280;32930;51.112;13.762;2023-05-07T21:20:50;100215.44;;;10.35;69.15
47166;BME280;32930;51.112;13.762;2023-05-07T21:23:16;100208.78;;;10.48;68.44
47166;BME280;32930;51.112;13.762;2023-05-07T21:25:41;100203.00;;;10.09;69.23
47166;BME280;32930;51.112;13.762;2023-05-07T21:28:10;100216.56;;;10.04;68.90
47166;BME280;32930;51.112;13.762;2023-05-07T21:30:36;100215.63;;;10.00;69.88
47166;BME280;32930;51.112;13.762;2023-05-07T21:33:01;100220.25;;;10.19;69.54
47166;BME280;32930;51.112;13.762;2023-05-07T21:35:26;100223.84;;;10.28;69.14
47166;BME280;32930;51.112;13.762;2023-05-07T21:37:51;100216.13;;;9.81;70.03
47166;BME280;32930;51.112;13.762;2023-05-07T21:40:17;100222.63;;;10.09;69.42
47166;BME280;32930;51.112;13.762;2023-05-07T21:42:42;100226.31;;;9.78;70.16
47166;BME280;32930;51.112;13.762;2023-05-07T21:45:07;100223.72;;;9.76;70.44
47166;BME280;32930;51.112;13.762;2023-05-07T21:47:32;100221.44;;;9.90;70.33
47166;BME280;32930;51.112;13.762;2023-05-07T21:49:58;100227.13;;;9.75;70.58
47166;BME280;32930;51.112;13.762;2023-05-07T21:52:23;100227.13;;;9.75;69.80
47166;BME280;32930;51.112;13.762;2023-05-07T21:54:52;100235.06;;;9.89;70.23
47166;BME280;32930;51.112;13.762;2023-05-07T21:57:18;100240.47;;;9.60;70.35
47166;BME280;32930;51.112;13.762;2023-05-07T21:59:43;100233.13;;;9.77;69.91
47166;BME280;32930;51.112;13.762;2023-05-07T22:02:08;100232.97;;;9.68;70.72
47166;BME280;32930;51.112;13.762;2023-05-07T22:04:34;100236.81;;;9.47;70.77
47166;BME280;32930;51.112;13.762;2023-05-07T22:06:59;100245.13;;;9.78;70.35
47166;BME280;32930;51.112;13.762;2023-05-07T22:09:24;100234.63;;;9.66;69.92
47166;BME280;32930;51.112;13.762;2023-05-07T22:11:49;100230.44;;;9.69;70.38
47166;BME280;32930;51.112;13.762;2023-05-07T22:14:15;100237.19;;;9.67;70.66
47166;BME280;32930;51.112;13.762;2023-05-07T22:16:40;100244.13;;;9.71;70.25
47166;BME280;32930;51.112;13.762;2023-05-07T22:19:05;100239.31;;;9.44;70.75
47166;BME280;32930;51.112;13.762;2023-05-07T22:21:30;100231.75;;;9.50;70.98
47166;BME280;32930;51.112;13.762;2023-05-07T22:23:56;100237.03;;;9.58;70.55
47166;BME280;32930;51.112;13.762;2023-05-07T22:26:21;100232.91;;;9.65;70.27
47166;BME280;32930;51.112;13.762;2023-05-07T22:28:47;100229.56;;;9.69;70.55
47166;BME280;32930;51.112;13.762;2023-05-07T22:31:12;100234.25;;;9.47;70.40
47166;BME280;32930;51.112;13.762;2023-05-07T22:33:37;100235.38;;;9.60;70.76
47166;BME280;32930;51.112;13.762;2023-05-07T22:36:02;100230.03;;;9.49;70.89
47166;BME280;32930;51.112;13.762;2023-05-07T22:38:28;100231.44;;;9.78;69.60
47166;BME280;32930;51.112;13.762;2023-05-07T22:40:54;100232.34;;;9.37;70.26
47166;BME280;32930;51.112;13.762;2023-05-07T22:43:19;100237.47;;;9.37;70.64
47166;BME280;32930;51.112;13.762;2023-05-07T22:45:44;100231.28;;;9.68;70.55
47166;BME280;32930;51.112;13.762;2023-05-07T22:48:09;100226.63;;;9.50;70.87
47166;BME280;32930;51.112;13.762;2023-05-07T22:50:35;100228.91;;;9.79;69.82
47166;BME280;32930;51.112;13.762;2023-05-07T22:53:01;100226.25;;;9.74;69.65
47166;BME280;32930;51.112;13.762;2023-05-07T22:55:26;100230.47;;;9.71;69.90
47166;BME280;32930;51.112;13.762;2023-05-07T22:57:52;100231.81;;;9.97;69.17
47166;BME280;32930;51.112;13.762;2023-05-07T23:00:17;100230.09;;;9.52;69.34
47166;BME280;32930;51.112;13.762;2023-05-07T23:02:42;100231.97;;;9.61;70.85
47166;BME280;32930;51.112;13.762;2023-05-07T23:05:08;100233.91;;;9.71;70.65
47166;BME280;32930;51.112;13.762;2023-05-07T23:07:33;100230.22;;;9.18;70.64
47166;BME280;32930;51.112;13.762;2023-05-07T23:09:58;100239.41;;;9.10;71.04
47166;BME280;32930;51.112;13.762;2023-05-07T23:12:23;100237.59;;;9.45;71.24
47166;BME280;32930;51.112;13.762;2023-05-07T23:14:49;100237.03;;;9.58;71.17
47166;BME280;32930;51.112;13.762;2023-05-07T23:17:14;100240.09;;;9.40;70.57
47166;BME280;32930;51.112;13.762;2023-05-07T23:19:39;100235.28;;;9.56;70.22
47166;BME280;32930;51.112;13.762;2023-05-07T23:22:05;100230.31;;;9.63;70.20
47166;BME280;32930;51.112;13.762;2023-05-07T23:24:31;100228.16;;;9.42;70.45
47166;BME280;32930;51.112;13.762;2023-05-07T23:26:56;100231.75;;;9.50;71.25
47166;BME280;32930;51.112;13.762;2023-05-07T23:29:21;100231.03;;;9.17;71.16
47166;BME280;32930;51.112;13.762;2023-05-07T23:31:46;100239.25;;;9.41;71.83
47166;BME280;32930;51.112;13.762;2023-05-07T23:34:11;100236.28;;;9.64;70.56
47166;BME280;32930;51.112;13.762;2023-05-07T23:36:37;100231.75;;;9.50;70.75
47166;BME280;32930;51.112;13.762;2023-05-07T23:39:02;100231.34;;;9.31;71.94
47166;BME280;32930;51.112;13.762;2023-05-07T23:41:27;100229.84;;;9.40;71.01
47166;BME280;32930;51.112;13.762;2023-05-07T23:43:53;100229.84;;;9.40;72.05
47166;BME280;32930;51.112;13.762;2023-05-07T23:46:18;100225.31;;;9.27;71.71
47166;BME280;32930;51.112;13.762;2023-05-07T23:48:43;100228.28;;;9.48;71.66
47166;BME280;32930;51.112;13.762;2023-05-07T23:51:08;100230.34;;;9.65;70.95
47166;BME280;32930;51.112;13.762;2023-05-07T23:53:34;100231.94;;;9.60;70.22
47166;BME280;32930;51.112;13.762;2023-05-07T23:55:59;100225.25;;;9.25;71.86
47166;BME280;32930;51.112;13.762;2023-05-07T23:58:25;100224.16;;;9.55;71.39
